Welcome to Northern Hawkes Bay. New Zealand.
PWS Header
      nz Flag



Hit Counter


W3C Valid W3C Valid logo


    Wairoa

Select any of the Stations below to visit their websites.










Historic Data from Weather Underground
Select the location of interest below. Wairoa is the default. Please have patience, this Data is slow to load in.
Northern Hawkes Bay Historical Data
Daily Summary for September 26, 2017 Units:  Metric    English   Both
« Previous Day
Next Day »
Daily Weekly Monthly Yearly Custom
  High: Low: Average:
Temperature: 23.1 °C 16.5 °C 19.4 °C
Dew Point: 13.3 °C 8.1 °C 10.9 °C
Humidity: 74% 40% 58%
Wind Speed: 40.4km/h 0.0km/h 12.9km/h
Wind Gust: 62.3km/h - -
Wind- - West
Pressure: 1010.7 hPa 1004.6 hPa -
Precipitation: 0.0 mm    
Historical Graphs
 
 
Tabular Data for September 26, 2017
Time Temperature Dew Point Pressure Wind Wind Speed Wind Gust Humidity Rainfall Rate (Hourly) solar
00:02 19.1 °C 10.9 °C 1010.7 hPa NNW 15.8 km/h 33.1 km/h 59% 0.0 mm 0 W/m2
00:07 19.1 °C 10.9 °C 1010.4 hPa NNW 11.1 km/h 33.1 km/h 59% 0.0 mm 0 W/m2
00:12 19.0 °C 11.1 °C 1010.4 hPa NNW 8.7 km/h 23.3 km/h 60% 0.0 mm 0 W/m2
00:17 18.9 °C 11.2 °C 1010.4 hPa NNW 7.2 km/h 23.3 km/h 61% 0.0 mm 0 W/m2
00:22 18.8 °C 11.1 °C 1010.4 hPa North 7.2 km/h 18.3 km/h 61% 0.0 mm 0 W/m2
00:27 18.9 °C 11.2 °C 1010.4 hPa North 12.2 km/h 21.9 km/h 61% 0.0 mm 0 W/m2
00:32 19.1 °C 10.9 °C 1010.0 hPa NNW 9.7 km/h 21.9 km/h 59% 0.0 mm 0 W/m2
00:37 18.9 °C 11.2 °C 1010.0 hPa North 9.7 km/h 21.9 km/h 61% 0.0 mm 0 W/m2
00:42 18.7 °C 11.3 °C 1010.0 hPa NNE 8.7 km/h 21.9 km/h 62% 0.0 mm 0 W/m2
00:47 18.7 °C 11.3 °C 1010.0 hPa North 7.2 km/h 20.9 km/h 62% 0.0 mm 0 W/m2
00:52 18.7 °C 11.3 °C 1010.0 hPa NNW 9.7 km/h 20.9 km/h 62% 0.0 mm 0 W/m2
00:57 18.6 °C 11.4 °C 1010.0 hPa North 6.1 km/h 17.2 km/h 63% 0.0 mm 0 W/m2
01:02 18.5 °C 11.3 °C 1010.0 hPa NNW 20.9 km/h 31.7 km/h 63% 0.0 mm 0 W/m2
01:07 18.7 °C 11.3 °C 1010.0 hPa NNW 7.2 km/h 31.7 km/h 62% 0.0 mm 0 W/m2
01:12 18.5 °C 11.3 °C 1010.0 hPa North 7.2 km/h 31.7 km/h 63% 0.0 mm 0 W/m2
01:18 18.7 °C 11.3 °C 1010.0 hPa North 15.8 km/h 19.5 km/h 62% 0.0 mm 0 W/m2
01:23 18.8 °C 11.1 °C 1010.0 hPa NNW 5.0 km/h 21.9 km/h 61% 0.0 mm 0 W/m2
01:28 18.9 °C 11.0 °C 1010.0 hPa North 11.1 km/h 21.9 km/h 60% 0.0 mm 0 W/m2
01:33 19.0 °C 10.8 °C 1009.7 hPa Calm   19.5 km/h 59% 0.0 mm 0 W/m2
01:38 18.9 °C 11.0 °C 1010.0 hPa Calm   19.5 km/h 60% 0.0 mm 0 W/m2
01:43 18.8 °C 10.9 °C 1010.0 hPa NNW 12.2 km/h 19.5 km/h 60% 0.0 mm 0 W/m2
01:48 19.3 °C 10.6 °C 1010.0 hPa NW 15.8 km/h 21.9 km/h 57% 0.0 mm 0 W/m2
01:53 19.3 °C 10.6 °C 1009.7 hPa NW 14.8 km/h 33.1 km/h 57% 0.0 mm 0 W/m2
01:58 19.2 °C 10.7 °C 1009.4 hPa NNW 17.2 km/h 33.1 km/h 58% 0.0 mm 0 W/m2
02:03 19.0 °C 10.8 °C 1009.4 hPa NNW 15.8 km/h 35.6 km/h 59% 0.0 mm 0 W/m2
02:08 19.1 °C 10.7 °C 1009.4 hPa NW 27.0 km/h 35.6 km/h 58% 0.0 mm 0 W/m2
02:13 19.0 °C 10.8 °C 1009.0 hPa NW 19.5 km/h 35.6 km/h 59% 0.0 mm 0 W/m2
02:18 18.7 °C 11.3 °C 1009.0 hPa NW 14.8 km/h 33.1 km/h 62% 0.0 mm 0 W/m2
02:23 18.6 °C 11.4 °C 1009.0 hPa NNW 20.9 km/h 33.1 km/h 63% 0.0 mm 0 W/m2
02:28 18.7 °C 11.3 °C 1009.0 hPa North 21.9 km/h 42.8 km/h 62% 0.0 mm 0 W/m2
02:33 18.6 °C 11.2 °C 1009.0 hPa North 12.2 km/h 42.8 km/h 62% 0.0 mm 0 W/m2
02:38 18.6 °C 11.2 °C 1009.0 hPa NNW 24.5 km/h 37.8 km/h 62% 0.0 mm 0 W/m2
02:43 18.5 °C 11.1 °C 1009.4 hPa NNW 17.2 km/h 35.6 km/h 62% 0.0 mm 0 W/m2
02:48 18.6 °C 10.9 °C 1009.4 hPa NNW 17.2 km/h 36.7 km/h 61% 0.0 mm 0 W/m2
02:53 18.6 °C 10.9 °C 1009.4 hPa North 15.8 km/h 36.7 km/h 61% 0.0 mm 0 W/m2
02:58 18.7 °C 11.1 °C 1009.7 hPa NNW 15.8 km/h 33.1 km/h 61% 0.0 mm 0 W/m2
03:03 18.7 °C 11.1 °C 1010.0 hPa North 14.8 km/h 33.1 km/h 61% 0.0 mm 0 W/m2
03:08 18.6 °C 10.9 °C 1009.7 hPa North 9.7 km/h 21.9 km/h 61% 0.0 mm 0 W/m2
03:13 18.5 °C 11.1 °C 1009.4 hPa North 11.1 km/h 21.9 km/h 62% 0.0 mm 0 W/m2
03:18 18.4 °C 11.0 °C 1009.4 hPa North 5.0 km/h 21.9 km/h 62% 0.0 mm 0 W/m2
03:23 18.3 °C 11.2 °C 1009.4 hPa North 6.1 km/h 21.9 km/h 63% 0.0 mm 0 W/m2
03:28 18.3 °C 11.4 °C 1009.4 hPa NNW 5.0 km/h 23.3 km/h 64% 0.0 mm 0 W/m2
03:33 18.1 °C 11.4 °C 1009.4 hPa NNW 1.1 km/h 23.3 km/h 65% 0.0 mm 0 W/m2
03:38 18.0 °C 11.3 °C 1009.4 hPa NNW 8.7 km/h 17.2 km/h 65% 0.0 mm 0 W/m2
03:43 17.8 °C 11.2 °C 1009.4 hPa NNW 15.8 km/h 30.6 km/h 65% 0.0 mm 0 W/m2
03:49 18.0 °C 11.3 °C 1009.0 hPa NW 8.7 km/h 30.6 km/h 65% 0.0 mm 0 W/m2
03:55 18.1 °C 11.4 °C 1009.0 hPa NNW 17.2 km/h 23.3 km/h 65% 0.0 mm 0 W/m2
04:00 18.2 °C 11.3 °C 1009.0 hPa NNW 12.2 km/h 23.3 km/h 64% 0.0 mm 0 W/m2
04:05 18.5 °C 11.1 °C 1008.7 hPa NW 21.9 km/h 30.6 km/h 62% 0.0 mm 0 W/m2
04:10 18.8 °C 10.9 °C 1008.7 hPa NW 18.3 km/h 33.1 km/h 60% 0.0 mm 0 W/m2
04:15 18.8 °C 10.9 °C 1008.7 hPa NNW 7.2 km/h 33.1 km/h 60% 0.0 mm 0 W/m2
04:21 18.4 °C 11.0 °C 1008.4 hPa North 1.1 km/h 18.3 km/h 62% 0.0 mm 0 W/m2
04:26 18.1 °C 11.2 °C 1008.7 hPa NNE 2.6 km/h 11.1 km/h 64% 0.0 mm 0 W/m2
04:31 17.8 °C 10.9 °C 1008.4 hPa Calm   11.1 km/h 64% 0.0 mm 0 W/m2
04:36 17.5 °C 10.8 °C 1008.4 hPa NNE 1.1 km/h 8.7 km/h 65% 0.0 mm 0 W/m2
04:41 17.3 °C 10.9 °C 1008.4 hPa Calm   5.0 km/h 66% 0.0 mm 0 W/m2
04:46 17.2 °C 10.8 °C 1008.4 hPa NE 5.0 km/h 7.2 km/h 66% 0.0 mm 0 W/m2
04:51 17.1 °C 10.9 °C 1008.0 hPa NE 7.2 km/h 11.1 km/h 67% 0.0 mm 0 W/m2
04:56 17.2 °C 11.0 °C 1008.4 hPa NE 6.1 km/h 11.1 km/h 67% 0.0 mm 0 W/m2
05:02 17.3 °C 11.1 °C 1008.4 hPa NNE 13.4 km/h 27.0 km/h 67% 0.0 mm 0 W/m2
05:07 17.5 °C 11.1 °C 1008.4 hPa North 5.0 km/h 27.0 km/h 66% 0.0 mm 0 W/m2
05:13 17.7 °C 10.8 °C 1009.0 hPa North 14.8 km/h 25.6 km/h 64% 0.0 mm 0 W/m2
05:18 18.2 °C 11.3 °C 1008.7 hPa NNW 7.2 km/h 25.6 km/h 64% 0.0 mm 0 W/m2
05:23 18.2 °C 11.3 °C 1008.7 hPa NNW 5.0 km/h 21.9 km/h 64% 0.0 mm 0 W/m2
05:28 18.4 °C 11.0 °C 1008.4 hPa North 2.6 km/h 20.9 km/h 62% 0.0 mm 0 W/m2
05:33 18.4 °C 11.0 °C 1008.7 hPa North 5.0 km/h 20.9 km/h 62% 0.0 mm 0 W/m2
05:38 18.7 °C 11.1 °C 1008.4 hPa NW 3.5 km/h 21.9 km/h 61% 0.0 mm 0 W/m2
05:43 18.8 °C 10.9 °C 1008.7 hPa NW 13.4 km/h 21.9 km/h 60% 0.0 mm 0 W/m2
05:48 18.9 °C 11.0 °C 1008.4 hPa NW 6.1 km/h 17.2 km/h 60% 0.0 mm 0 W/m2
05:53 18.7 °C 11.1 °C 1008.4 hPa NNW 6.1 km/h 14.8 km/h 61% 0.0 mm 0 W/m2
05:58 18.5 °C 10.8 °C 1008.4 hPa North 5.0 km/h 13.4 km/h 61% 0.0 mm 0 W/m2
06:03 18.2 °C 10.8 °C 1008.4 hPa NNE 3.5 km/h 13.4 km/h 62% 0.0 mm 0 W/m2
06:08 18.1 °C 10.9 °C 1008.4 hPa Calm   11.1 km/h 63% 0.0 mm 0 W/m2
06:13 17.8 °C 10.7 °C 1008.7 hPa Calm   6.1 km/h 63% 0.0 mm 0 W/m2
06:18 17.6 °C 10.5 °C 1009.0 hPa Calm   1.1 km/h 63% 0.0 mm 0 W/m2
06:23 17.5 °C 10.6 °C 1009.0 hPa Calm   1.1 km/h 64% 0.0 mm 0 W/m2
06:28 17.4 °C 10.8 °C 1008.4 hPa East 2.6 km/h 3.5 km/h 65% 0.0 mm 0 W/m2
06:33 17.4 °C 10.8 °C 1008.7 hPa NE 2.6 km/h 5.0 km/h 65% 0.0 mm 0 W/m2
06:38 17.4 °C 10.8 °C 1009.0 hPa North 1.1 km/h 6.1 km/h 65% 0.0 mm 0 W/m2
06:43 17.4 °C 10.8 °C 1008.7 hPa Calm   7.2 km/h 65% 0.0 mm 0 W/m2
06:48 17.5 °C 10.8 °C 1008.7 hPa NNE 1.1 km/h 8.7 km/h 65% 0.0 mm 0 W/m2
06:53 17.4 °C 10.8 °C 1009.0 hPa Calm   8.7 km/h 65% 0.0 mm 0 W/m2
06:58 17.4 °C 10.8 °C 1008.7 hPa Calm   5.0 km/h 65% 0.0 mm 0 W/m2
07:03 17.3 °C 10.7 °C 1008.4 hPa Calm   3.5 km/h 65% 0.0 mm 0 W/m2
07:08 17.2 °C 10.6 °C 1008.4 hPa ESE 1.1 km/h 3.5 km/h 65% 0.0 mm 0 W/m2
07:13 17.1 °C 10.7 °C 1008.4 hPa East 5.0 km/h 6.1 km/h 66% 0.0 mm 2 W/m2
07:18 17.0 °C 10.6 °C 1008.4 hPa Calm   6.1 km/h 66% 0.0 mm 3 W/m2
07:28 16.7 °C 10.6 °C 1008.0 hPa Calm   1.1 km/h 67% 0.0 mm 7 W/m2
07:33 16.7 °C 10.6 °C 1008.0 hPa Calm   1.1 km/h 67% 0.0 mm 10 W/m2
07:38 16.7 °C 10.8 °C 1007.7 hPa Calm     68% 0.0 mm 17 W/m2
07:43 16.7 °C 11.0 °C 1007.7 hPa Calm   1.1 km/h 69% 0.0 mm 22 W/m2
07:48 16.5 °C 11.0 °C 1007.7 hPa Calm   1.1 km/h 70% 0.0 mm 27 W/m2
07:53 16.6 °C 11.1 °C 1008.4 hPa Calm   2.6 km/h 70% 0.0 mm 31 W/m2
07:58 16.7 °C 11.0 °C 1008.4 hPa WNW 2.6 km/h 7.2 km/h 69% 0.0 mm 35 W/m2
08:03 16.7 °C 11.0 °C 1008.4 hPa NW 8.7 km/h 18.3 km/h 69% 0.0 mm 40 W/m2
08:08 18.6 °C 10.9 °C 1008.7 hPa North 20.9 km/h 36.7 km/h 61% 0.0 mm 39 W/m2
08:13 19.2 °C 10.7 °C 1008.7 hPa NNW 11.1 km/h 36.7 km/h 58% 0.0 mm 41 W/m2
08:18 19.3 °C 10.6 °C 1009.0 hPa NW 18.3 km/h 34.3 km/h 57% 0.0 mm 35 W/m2
08:23 19.3 °C 10.8 °C 1009.0 hPa NW 17.2 km/h 34.3 km/h 58% 0.0 mm 38 W/m2
08:28 19.3 °C 10.8 °C 1009.0 hPa NNW 12.2 km/h 27.0 km/h 58% 0.0 mm 60 W/m2
08:33 19.4 °C 10.9 °C 1009.0 hPa NNW 15.8 km/h 25.6 km/h 58% 0.0 mm 82 W/m2
08:38 19.5 °C 10.8 °C 1008.0 hPa North 18.3 km/h 39.3 km/h 57% 0.0 mm 89 W/m2
08:43 19.6 °C 10.6 °C 1008.0 hPa North 21.9 km/h 39.3 km/h 56% 0.0 mm 93 W/m2
08:48 19.5 °C 10.5 °C 1007.7 hPa North 24.5 km/h 39.3 km/h 56% 0.0 mm 96 W/m2
08:53 19.5 °C 10.5 °C 1007.7 hPa NNW 20.9 km/h 40.4 km/h 56% 0.0 mm 99 W/m2
08:58 19.6 °C 10.3 °C 1007.7 hPa NNW 18.3 km/h 41.7 km/h 55% 0.0 mm 100 W/m2
09:03 19.6 °C 10.1 °C 1007.7 hPa North 14.8 km/h 41.7 km/h 54% 0.0 mm 104 W/m2
09:08 19.6 °C 10.1 °C 1007.7 hPa North 8.7 km/h 30.6 km/h 54% 0.0 mm 109 W/m2
09:13 19.7 °C 10.4 °C 1007.7 hPa North 7.2 km/h 28.0 km/h 55% 0.0 mm 114 W/m2
09:18 19.8 °C 10.2 °C 1007.7 hPa North 9.7 km/h 17.2 km/h 54% 0.0 mm 118 W/m2
09:23 19.9 °C 10.3 °C 1007.7 hPa North 8.7 km/h 17.2 km/h 54% 0.0 mm 123 W/m2
09:28 20.1 °C 8.8 °C 1007.3 hPa NNE 19.5 km/h 27.0 km/h 48% 0.0 mm 134 W/m2
09:33 20.3 °C 8.9 °C 1007.3 hPa North 7.2 km/h 27.0 km/h 48% 0.0 mm 155 W/m2
09:38 20.3 °C 9.2 °C 1007.3 hPa NNW 6.1 km/h 27.0 km/h 49% 0.0 mm 181 W/m2
09:43 20.6 °C 10.1 °C 1007.0 hPa NNW 6.1 km/h 11.1 km/h 51% 0.0 mm 191 W/m2
09:48 20.9 °C 9.8 °C 1007.0 hPa NNE 8.7 km/h 19.5 km/h 49% 0.0 mm 185 W/m2
09:53 20.9 °C 9.2 °C 1007.0 hPa NNE 8.7 km/h 24.5 km/h 47% 0.0 mm 195 W/m2
09:58 21.2 °C 8.8 °C 1006.7 hPa North 13.4 km/h 24.5 km/h 45% 0.0 mm 215 W/m2
10:03 21.5 °C 9.1 °C 1007.3 hPa NNW 3.5 km/h 23.3 km/h 45% 0.0 mm 259 W/m2
10:08 22.0 °C 8.8 °C 1007.0 hPa North 20.9 km/h 28.0 km/h 43% 0.0 mm 343 W/m2
10:13 22.3 °C 8.4 °C 1007.0 hPa North 21.9 km/h 30.6 km/h 41% 0.0 mm 255 W/m2
10:18 22.4 °C 8.2 °C 1007.0 hPa North 13.4 km/h 35.6 km/h 40% 0.0 mm 241 W/m2
10:21 22.3 °C 8.1 °C 1007.0 hPa North 18.3 km/h 41.7 km/h 40% 0.0 mm 232 W/m2
10:26 22.1 °C 8.2 °C 1007.0 hPa North 30.6 km/h 46.5 km/h 41% 0.0 mm 238 W/m2
10:31 21.8 °C 8.3 °C 1007.0 hPa NNW 34.3 km/h 55.0 km/h 42% 0.0 mm 219 W/m2
10:36 21.4 °C 8.7 °C 1006.7 hPa NNW 18.3 km/h 55.0 km/h 44% 0.0 mm 180 W/m2
10:41 21.2 °C 8.5 °C 1006.7 hPa North 17.2 km/h 55.0 km/h 44% 0.0 mm 171 W/m2
10:46 21.0 °C 8.6 °C 1006.3 hPa North 25.6 km/h 45.4 km/h 45% 0.0 mm 185 W/m2
10:51 21.0 °C 8.9 °C 1006.0 hPa NNW 19.5 km/h 42.8 km/h 46% 0.0 mm 190 W/m2
10:56 21.0 °C 8.6 °C 1006.0 hPa NNW 14.8 km/h 46.5 km/h 45% 0.0 mm 191 W/m2
11:06 21.0 °C 8.9 °C 1006.3 hPa NW 30.6 km/h 55.0 km/h 46% 0.0 mm 187 W/m2
11:11 20.6 °C 9.5 °C 1006.3 hPa NW 18.3 km/h 54.1 km/h 49% 0.0 mm 191 W/m2
11:16 20.8 °C 9.7 °C 1006.3 hPa NNW 18.3 km/h 45.4 km/h 49% 0.0 mm 212 W/m2
11:21 20.8 °C 10.0 °C 1006.7 hPa NNW 8.7 km/h 36.7 km/h 50% 0.0 mm 221 W/m2
11:26 20.7 °C 10.2 °C 1006.3 hPa NW 15.8 km/h 33.1 km/h 51% 0.0 mm 188 W/m2
11:31 20.6 °C 10.4 °C 1006.3 hPa NW 13.4 km/h 36.7 km/h 52% 0.0 mm 175 W/m2
11:36 20.3 °C 10.1 °C 1006.0 hPa NW 24.5 km/h 41.7 km/h 52% 0.0 mm 190 W/m2
11:37 20.3 °C 10.1 °C 1006.0 hPa NW 20.9 km/h 41.7 km/h 52% 0.0 mm 194 W/m2
11:42 20.6 °C 10.7 °C 1006.3 hPa NW 14.8 km/h 41.7 km/h 53% 0.0 mm 190 W/m2
11:47 20.6 °C 10.4 °C 1006.0 hPa NW 20.9 km/h 33.1 km/h 52% 0.0 mm 248 W/m2
11:52 20.9 °C 10.4 °C 1005.6 hPa NNW 18.3 km/h 33.1 km/h 51% 0.0 mm 240 W/m2
11:57 20.9 °C 10.4 °C 1006.0 hPa NNW 20.9 km/h 33.1 km/h 51% 0.0 mm 250 W/m2
12:02 21.1 °C 10.0 °C 1006.3 hPa NW 20.9 km/h 33.1 km/h 49% 0.0 mm 285 W/m2
12:07 21.4 °C 9.6 °C 1006.3 hPa NNW 12.2 km/h 33.1 km/h 47% 0.0 mm 340 W/m2
12:12 21.8 °C 9.3 °C 1006.3 hPa NNW 40.4 km/h 62.3 km/h 45% 0.0 mm 371 W/m2
12:17 22.0 °C 8.8 °C 1006.3 hPa NW 23.3 km/h 62.3 km/h 43% 0.0 mm 385 W/m2
12:22 21.9 °C 9.4 °C 1006.3 hPa NW 34.3 km/h 62.3 km/h 45% 0.0 mm 374 W/m2
12:27 21.8 °C 10.3 °C 1006.0 hPa NW 23.3 km/h 52.6 km/h 48% 0.0 mm 417 W/m2
12:32 21.9 °C 10.4 °C 1006.0 hPa NW 25.6 km/h 54.1 km/h 48% 0.0 mm 386 W/m2
12:37 21.8 °C 10.9 °C 1006.0 hPa NW 21.9 km/h 54.1 km/h 50% 0.0 mm 268 W/m2
12:42 22.0 °C 10.2 °C 1005.6 hPa NNW 24.5 km/h 50.0 km/h 47% 0.0 mm 459 W/m2
12:47 22.1 °C 10.3 °C 1005.3 hPa NNW 27.0 km/h 55.0 km/h 47% 0.0 mm 483 W/m2
12:52 22.4 °C 10.2 °C 1005.3 hPa NNW 28.0 km/h 55.0 km/h 46% 0.3 mm 608 W/m2
12:57 22.6 °C 9.7 °C 1005.3 hPa NNW 31.7 km/h 51.5 km/h 44% 0.3 mm 634 W/m2
13:02 23.0 °C 9.8 °C 1005.3 hPa NNW 40.4 km/h 61.1 km/h 43% 0.3 mm 498 W/m2
13:07 22.8 °C 9.2 °C 1005.0 hPa North 29.4 km/h 61.1 km/h 42% 0.3 mm 389 W/m2
13:12 22.8 °C 9.6 °C 1005.3 hPa NNW 19.5 km/h 58.7 km/h 43% 0.3 mm 375 W/m2
13:17 22.7 °C 9.5 °C 1005.0 hPa NW 29.4 km/h 58.7 km/h 43% 0.3 mm 366 W/m2
13:22 22.3 °C 9.4 °C 1005.3 hPa NW 34.3 km/h 51.5 km/h 44% 0.3 mm 289 W/m2
13:27 22.1 °C 9.6 °C 1005.3 hPa NW 25.6 km/h 54.1 km/h 45% 0.3 mm 302 W/m2
13:32 22.1 °C 9.9 °C 1005.3 hPa NW 28.0 km/h 54.1 km/h 46% 0.3 mm 325 W/m2
13:37 22.2 °C 10.1 °C 1005.3 hPa NW 25.6 km/h 46.5 km/h 46% 0.3 mm 392 W/m2
13:42 22.4 °C 10.2 °C 1005.3 hPa NNW 29.4 km/h 52.6 km/h 46% 0.3 mm 467 W/m2
13:47 22.6 °C 11.1 °C 1005.3 hPa NNW 27.0 km/h 52.6 km/h 48% 0.3 mm 436 W/m2
13:52 22.8 °C 11.2 °C 1005.3 hPa NNW 27.0 km/h 52.6 km/h 48% 0.0 mm 491 W/m2
13:57 23.1 °C 11.2 °C 1005.3 hPa NNW 19.5 km/h 51.5 km/h 47% 0.0 mm 485 W/m2
14:02 23.0 °C 11.1 °C 1005.6 hPa NNW 14.8 km/h 51.5 km/h 47% 0.0 mm 373 W/m2
14:07 22.5 °C 10.9 °C 1005.6 hPa NNW 33.1 km/h 55.0 km/h 48% 0.0 mm 257 W/m2
14:12 22.5 °C 11.3 °C 1005.6 hPa NW 17.2 km/h 55.0 km/h 49% 0.0 mm 462 W/m2
14:17 22.9 °C 11.3 °C 1005.6 hPa NNW 25.6 km/h 55.0 km/h 48% 0.0 mm 469 W/m2
14:22 23.1 °C 11.2 °C 1005.6 hPa NNW 21.9 km/h 54.1 km/h 47% 0.0 mm 338 W/m2
14:27 22.8 °C 10.6 °C 1005.3 hPa NNW 27.0 km/h 54.1 km/h 46% 0.0 mm 312 W/m2
14:44 22.3 °C 10.4 °C 1005.0 hPa NNW 18.3 km/h 60.2 km/h 47% 0.0 mm 286 W/m2
14:49 22.3 °C 10.4 °C 1005.0 hPa NNW 36.7 km/h 57.6 km/h 47% 0.0 mm 493 W/m2
14:54 22.5 °C 10.7 °C 1005.0 hPa NNW 25.6 km/h 57.6 km/h 47% 0.0 mm 162 W/m2
14:59 22.1 °C 10.6 °C 1004.6 hPa NNW 30.6 km/h 48.9 km/h 48% 0.0 mm 276 W/m2
15:04 22.2 °C 10.7 °C 1005.0 hPa NNW 19.5 km/h 45.4 km/h 48% 0.0 mm 198 W/m2
15:09 22.0 °C 10.2 °C 1005.0 hPa NNW 25.6 km/h 45.4 km/h 47% 0.0 mm 170 W/m2
15:14 21.9 °C 10.7 °C 1005.0 hPa NNW 30.6 km/h 46.5 km/h 49% 0.0 mm 208 W/m2
15:19 21.9 °C 10.7 °C 1005.3 hPa NNW 18.3 km/h 46.5 km/h 49% 0.0 mm 199 W/m2
15:24 22.0 °C 10.5 °C 1005.0 hPa NNW 37.8 km/h 51.5 km/h 48% 0.0 mm 190 W/m2
15:29 21.9 °C 11.3 °C 1005.0 hPa NNW 18.3 km/h 51.5 km/h 51% 0.0 mm 165 W/m2
15:35 21.8 °C 11.2 °C 1005.0 hPa NNW 27.0 km/h 43.9 km/h 51% 0.0 mm 153 W/m2
15:40 21.7 °C 11.1 °C 1005.0 hPa NNW 34.3 km/h 52.6 km/h 51% 0.0 mm 151 W/m2
15:45 21.7 °C 11.4 °C 1005.3 hPa NNW 35.6 km/h 52.6 km/h 52% 0.0 mm 183 W/m2
15:50 21.8 °C 11.2 °C 1005.0 hPa NNW 29.4 km/h 51.5 km/h 51% 0.0 mm 156 W/m2
15:55 21.7 °C 11.4 °C 1005.3 hPa NNW 29.4 km/h 52.6 km/h 52% 0.0 mm 186 W/m2
16:01 21.7 °C 11.4 °C 1005.3 hPa NW 33.1 km/h 54.1 km/h 52% 0.0 mm 167 W/m2
16:06 21.8 °C 11.5 °C 1005.3 hPa NW 17.2 km/h 54.1 km/h 52% 0.0 mm 173 W/m2
16:17 22.5 °C 11.6 °C 1005.3 hPa NNW 18.3 km/h 47.9 km/h 50% 0.0 mm 257 W/m2
16:22 22.2 °C 11.0 °C 1005.3 hPa NW 21.9 km/h 40.4 km/h 49% 0.0 mm 108 W/m2
16:27 21.9 °C 11.3 °C 1005.3 hPa NW 15.8 km/h 40.4 km/h 51% 0.0 mm 125 W/m2
16:28 21.9 °C 11.3 °C 1005.3 hPa NW 6.1 km/h 40.4 km/h 51% 0.0 mm 105 W/m2
16:33 21.8 °C 11.5 °C 1005.3 hPa NW 3.5 km/h 31.7 km/h 52% 0.0 mm 82 W/m2
16:36 21.7 °C 11.7 °C 1005.0 hPa NW 1.1 km/h 31.7 km/h 53% 0.0 mm 97 W/m2
16:41 21.6 °C 11.9 °C 1005.0 hPa West 11.1 km/h 15.8 km/h 54% 0.0 mm 104 W/m2
16:45 21.3 °C 12.2 °C 1005.0 hPa West 9.7 km/h 18.3 km/h 56% 0.0 mm 107 W/m2
16:55 21.1 °C 12.0 °C 1004.6 hPa NW 5.0 km/h 14.8 km/h 56% 0.0 mm 117 W/m2
16:58 21.1 °C 12.0 °C 1005.0 hPa North 3.5 km/h 12.2 km/h 56% 0.0 mm 158 W/m2
17:03 21.6 °C 12.2 °C 1005.6 hPa Calm   28.0 km/h 55% 0.0 mm 205 W/m2
17:08 22.2 °C 12.4 °C 1005.6 hPa WNW 7.2 km/h 28.0 km/h 54% 0.0 mm 276 W/m2
17:18 21.3 °C 12.7 °C 1006.0 hPa SW 6.1 km/h 13.4 km/h 58% 0.0 mm 103 W/m2
17:23 21.0 °C 12.7 °C 1006.0 hPa SSW 7.2 km/h 11.1 km/h 59% 0.0 mm 63 W/m2
17:28 20.7 °C 12.9 °C 1006.3 hPa SW 1.1 km/h 11.1 km/h 61% 0.0 mm 49 W/m2
17:33 20.8 °C 12.8 °C 1006.3 hPa Calm   11.1 km/h 60% 0.0 mm 121 W/m2
17:38 21.4 °C 13.3 °C 1006.3 hPa West 2.6 km/h 8.7 km/h 60% 0.0 mm 105 W/m2
17:43 21.5 °C 12.4 °C 1006.0 hPa WNW 7.2 km/h 11.1 km/h 56% 0.0 mm 157 W/m2
17:48 21.3 °C 11.6 °C 1006.3 hPa NW 11.1 km/h 24.5 km/h 54% 0.0 mm 124 W/m2
17:53 20.4 °C 11.1 °C 1006.7 hPa NW 28.0 km/h 43.9 km/h 55% 0.0 mm 82 W/m2
17:58 20.0 °C 11.5 °C 1006.7 hPa NW 13.4 km/h 43.9 km/h 58% 0.0 mm 66 W/m2
18:03 19.7 °C 11.7 °C 1006.3 hPa NNW 7.2 km/h 43.9 km/h 60% 0.0 mm 43 W/m2
18:08 19.3 °C 11.8 °C 1006.7 hPa NNW 11.1 km/h 29.4 km/h 62% 0.0 mm 30 W/m2
18:13 19.1 °C 11.2 °C 1006.7 hPa NNW 19.5 km/h 36.7 km/h 60% 0.0 mm 21 W/m2
18:18 18.8 °C 11.4 °C 1006.7 hPa NNW 15.8 km/h 36.7 km/h 62% 0.0 mm 29 W/m2
18:23 18.2 °C 11.5 °C 1006.7 hPa North 20.9 km/h 40.4 km/h 65% 0.0 mm 17 W/m2
18:28 18.0 °C 11.3 °C 1006.7 hPa North 24.5 km/h 40.4 km/h 65% 0.0 mm 8 W/m2
18:33 18.1 °C 11.2 °C 1006.3 hPa NNW 21.9 km/h 46.5 km/h 64% 0.0 mm 13 W/m2
18:38 18.2 °C 11.1 °C 1006.3 hPa NNW 15.8 km/h 46.5 km/h 63% 0.0 mm 16 W/m2
18:43 18.2 °C 11.1 °C 1006.0 hPa NNW 15.8 km/h 43.9 km/h 63% 0.0 mm 12 W/m2
18:48 18.2 °C 10.8 °C 1006.0 hPa NNW 19.5 km/h 43.9 km/h 62% 0.0 mm 6 W/m2
18:53 18.1 °C 10.9 °C 1006.0 hPa NNW 19.5 km/h 42.8 km/h 63% 0.0 mm 3 W/m2
18:58 17.9 °C 11.0 °C 1006.0 hPa NNW 12.2 km/h 39.3 km/h 64% 0.0 mm 0 W/m2
19:03 17.9 °C 11.0 °C 1006.3 hPa North 12.2 km/h 33.1 km/h 64% 0.0 mm 0 W/m2
19:08 17.9 °C 11.0 °C 1006.3 hPa North 14.8 km/h 28.0 km/h 64% 0.0 mm 0 W/m2
19:13 17.9 °C 11.0 °C 1006.3 hPa NNW 11.1 km/h 34.3 km/h 64% 0.0 mm 0 W/m2
19:18 17.8 °C 11.2 °C 1006.3 hPa NW 14.8 km/h 34.3 km/h 65% 0.0 mm 0 W/m2
19:28 17.5 °C 11.3 °C 1005.6 hPa North 11.1 km/h 31.7 km/h 67% 0.0 mm 0 W/m2
19:33 17.4 °C 11.4 °C 1005.6 hPa North 12.2 km/h 36.7 km/h 68% 0.0 mm 0 W/m2
19:38 17.3 °C 11.6 °C 1005.6 hPa North 15.8 km/h 36.7 km/h 69% 0.0 mm 0 W/m2
19:44 17.1 °C 11.6 °C 1005.6 hPa North 6.1 km/h 28.0 km/h 70% 0.0 mm 0 W/m2
19:49 17.1 °C 11.6 °C 1006.0 hPa NNE 11.1 km/h 23.3 km/h 70% 0.0 mm 0 W/m2
19:54 17.1 °C 11.6 °C 1006.0 hPa NNE 8.7 km/h 27.0 km/h 70% 0.0 mm 0 W/m2
19:59 17.3 °C 11.6 °C 1006.0 hPa NNW 6.1 km/h 27.0 km/h 69% 0.0 mm 0 W/m2
20:04 17.3 °C 11.6 °C 1006.3 hPa NW 15.8 km/h 39.3 km/h 69% 0.0 mm 0 W/m2
20:09 17.4 °C 11.9 °C 1006.0 hPa NNW 21.9 km/h 39.3 km/h 70% 0.0 mm 0 W/m2
20:14 17.3 °C 12.0 °C 1006.3 hPa North 15.8 km/h 39.3 km/h 71% 0.0 mm 0 W/m2
20:19 17.3 °C 12.0 °C 1006.3 hPa North 15.8 km/h 35.6 km/h 71% 0.0 mm 0 W/m2
20:24 17.1 °C 12.0 °C 1006.3 hPa North 8.7 km/h 29.4 km/h 72% 0.0 mm 0 W/m2
20:29 17.0 °C 11.9 °C 1006.3 hPa North 7.2 km/h 20.9 km/h 72% 0.0 mm 0 W/m2
20:34 16.8 °C 12.2 °C 1006.3 hPa North 2.6 km/h 17.2 km/h 74% 0.0 mm 0 W/m2
20:39 16.7 °C 12.1 °C 1006.0 hPa NNE 11.1 km/h 17.2 km/h 74% 0.0 mm 0 W/m2
20:44 17.1 °C 11.8 °C 1006.0 hPa North 11.1 km/h 24.5 km/h 71% 0.0 mm 0 W/m2
20:49 17.7 °C 11.5 °C 1006.0 hPa NNW 18.3 km/h 29.4 km/h 67% 0.0 mm 0 W/m2
20:54 17.8 °C 11.2 °C 1006.0 hPa NNW 14.8 km/h 31.7 km/h 65% 0.0 mm 0 W/m2
20:59 17.8 °C 11.4 °C 1006.0 hPa North 13.4 km/h 31.7 km/h 66% 0.0 mm 0 W/m2
21:04 17.8 °C 10.7 °C 1006.0 hPa North 15.8 km/h 28.0 km/h 63% 0.0 mm 0 W/m2
21:09 18.0 °C 11.3 °C 1006.0 hPa NNW 14.8 km/h 33.1 km/h 65% 0.0 mm 0 W/m2
21:14 18.1 °C 11.4 °C 1006.0 hPa NNW 18.3 km/h 42.8 km/h 65% 0.0 mm 0 W/m2
21:19 18.2 °C 11.5 °C 1006.0 hPa North 23.3 km/h 42.8 km/h 65% 0.0 mm 0 W/m2
21:24 18.2 °C 11.5 °C 1006.0 hPa NNW 11.1 km/h 45.4 km/h 65% 0.0 mm 0 W/m2
21:29 18.1 °C 11.7 °C 1005.6 hPa NW 11.1 km/h 45.4 km/h 66% 0.0 mm 0 W/m2
21:34 18.1 °C 11.4 °C 1005.6 hPa NNW 9.7 km/h 25.6 km/h 65% 0.0 mm 0 W/m2
21:39 18.2 °C 11.5 °C 1006.0 hPa North 5.0 km/h 25.6 km/h 65% 0.0 mm 0 W/m2
21:44 18.0 °C 11.3 °C 1006.3 hPa NNE 3.5 km/h 24.5 km/h 65% 0.0 mm 0 W/m2
21:49 17.9 °C 11.0 °C 1006.0 hPa ENE 3.5 km/h 14.8 km/h 64% 0.0 mm 0 W/m2
22:06 18.2 °C 11.1 °C 1006.0 hPa Calm   7.2 km/h 63% 0.0 mm 0 W/m2
22:11 18.3 °C 10.9 °C 1006.3 hPa Calm   13.4 km/h 62% 0.0 mm 0 W/m2
22:16 18.4 °C 11.0 °C 1006.3 hPa NNE 2.6 km/h 13.4 km/h 62% 0.0 mm 0 W/m2
22:22 18.4 °C 11.0 °C 1006.7 hPa North 2.6 km/h 8.7 km/h 62% 0.0 mm 0 W/m2
22:27 18.4 °C 11.0 °C 1006.7 hPa Calm   7.2 km/h 62% 0.0 mm 0 W/m2
22:32 18.4 °C 11.0 °C 1006.7 hPa Calm   7.2 km/h 62% 0.0 mm 0 W/m2
22:37 18.3 °C 11.4 °C 1006.7 hPa Calm   3.5 km/h 64% 0.0 mm 0 W/m2
22:42 18.2 °C 11.5 °C 1006.7 hPa Calm   2.6 km/h 65% 0.0 mm 0 W/m2
22:47 18.1 °C 11.4 °C 1006.7 hPa ESE 1.1 km/h 5.0 km/h 65% 0.0 mm 0 W/m2
22:52 18.0 °C 11.3 °C 1006.7 hPa Calm   5.0 km/h 65% 0.0 mm 0 W/m2
22:57 17.8 °C 10.9 °C 1006.7 hPa Calm   2.6 km/h 64% 0.0 mm 0 W/m2
23:02 18.0 °C 11.3 °C 1006.7 hPa Calm   14.8 km/h 65% 0.0 mm 0 W/m2
23:07 18.1 °C 11.2 °C 1006.7 hPa Calm   14.8 km/h 64% 0.0 mm 0 W/m2
23:12 18.1 °C 11.2 °C 1006.7 hPa Calm   1.1 km/h 64% 0.0 mm 0 W/m2
23:17 18.1 °C 11.2 °C 1006.7 hPa Calm     64% 0.0 mm 0 W/m2
23:22 17.9 °C 11.2 °C 1006.7 hPa Calm   2.6 km/h 65% 0.0 mm 0 W/m2
23:27 17.8 °C 11.4 °C 1006.7 hPa WNW 1.1 km/h 3.5 km/h 66% 0.0 mm 0 W/m2
23:32 17.7 °C 11.3 °C 1006.3 hPa Calm   6.1 km/h 66% 0.0 mm 0 W/m2
23:37 17.6 °C 11.4 °C 1006.7 hPa Calm   6.1 km/h 67% 0.0 mm 0 W/m2
23:42 17.5 °C 11.6 °C 1006.7 hPa Calm   5.0 km/h 68% 0.0 mm 0 W/m2
23:47 17.4 °C 11.4 °C 1006.7 hPa Calm   3.5 km/h 68% 0.0 mm 0 W/m2
23:52 17.5 °C 11.6 °C 1007.0 hPa Calm   2.6 km/h 68% 0.0 mm 0 W/m2
23:57 17.6 °C 11.6 °C 1007.0 hPa Calm   2.6 km/h 68% 0.0 mm 0 W/m2
Northern Hawkes Bay. New Zealand Historic Data
Compliments of Weather Underground - 2 mb